Time;durP1;ratioP1;P1;durP2;ratioP2;P2;SDS_P1;SDS_P2;PMS_P1;PMS_P2;Temp;Humidity;BMP_temperature;BMP_pressure;BME280_temperature;BME280_humidity;BME280_pressure;Samples;Min_cycle;Max_cycle;Signal;HPM_P1;HPM_P2
2022/09/02 00:01:43;;;;;;;3.07;2.10;;;24.60;40.20;;;;;;5034659;28;20431;-72
2022/09/02 00:04:14;;;;;;;1.77;1.67;;;24.60;39.90;;;;;;5022469;28;20464;-71
2022/09/02 00:06:44;;;;;;;1.63;1.53;;;24.60;39.90;;;;;;5018005;28;20444;-71
2022/09/02 00:09:14;;;;;;;1.97;1.70;;;24.60;40.10;;;;;;5026054;28;20432;-71
2022/09/02 00:11:45;;;;;;;2.30;2.20;;;24.60;40.00;;;;;;5023066;28;20429;-71
2022/09/02 00:14:17;;;;;;;1.60;1.50;;;24.60;40.00;;;;;;5016692;28;20525;-72
2022/09/02 00:16:51;;;;;;;2.00;1.90;;;24.60;40.10;;;;;;5023627;28;20459;-71
2022/09/02 00:19:20;;;;;;;1.93;1.77;;;24.60;40.20;;;;;;5031512;28;21026;-71
2022/09/02 00:21:50;;;;;;;1.50;1.40;;;24.50;40.20;;;;;;5016144;28;20523;-71
2022/09/02 00:24:18;;;;;;;1.57;1.47;;;24.60;40.30;;;;;;5033783;28;20459;-72
2022/09/02 00:26:49;;;;;;;2.30;1.50;;;24.60;40.20;;;;;;5018840;28;20450;-71
2022/09/02 00:29:17;;;;;;;1.43;1.33;;;24.50;39.90;;;;;;5039602;28;20464;-72
2022/09/02 00:31:48;;;;;;;2.00;1.90;;;24.60;40.10;;;;;;5021249;28;21009;-72
2022/09/02 00:34:17;;;;;;;1.53;1.43;;;24.60;39.90;;;;;;5031949;28;20902;-73
2022/09/02 00:36:45;;;;;;;1.93;1.60;;;24.50;40.20;;;;;;5023831;28;20848;-72
2022/09/02 00:39:13;;;;;;;1.60;1.50;;;24.50;40.00;;;;;;5028952;28;20476;-71
2022/09/02 00:41:43;;;;;;;1.80;1.70;;;24.60;39.90;;;;;;5019043;28;20436;-71
2022/09/02 00:44:16;;;;;;;2.30;2.00;;;24.60;40.10;;;;;;5043894;28;20455;-71
2022/09/02 00:46:45;;;;;;;1.33;1.23;;;24.60;40.20;;;;;;5046908;28;20440;-71
2022/09/02 00:49:17;;;;;;;3.10;1.50;;;24.50;40.20;;;;;;5025299;28;20518;-71
2022/09/02 00:51:49;;;;;;;1.87;1.77;;;24.50;40.10;;;;;;5017374;28;20448;-71
2022/09/02 00:54:19;;;;;;;1.80;1.70;;;24.50;41.40;;;;;;5020071;28;20472;-71
2022/09/02 00:56:49;;;;;;;1.97;1.70;;;24.50;40.20;;;;;;5035600;28;20791;-71
2022/09/02 00:59:27;;;;;;;1.60;1.50;;;24.50;40.10;;;;;;5002581;28;20486;-71
2022/09/02 01:01:57;;;;;;;1.73;1.63;;;24.50;40.10;;;;;;5025752;28;20793;-71
2022/09/02 01:04:26;;;;;;;1.93;1.60;;;24.50;40.10;;;;;;5034830;28;20479;-72
2022/09/02 01:06:55;;;;;;;1.70;1.60;;;24.50;40.20;;;;;;5043015;28;20801;-71
2022/09/02 01:09:23;;;;;;;1.63;1.53;;;24.50;40.20;;;;;;5028600;28;20464;-71
2022/09/02 01:11:52;;;;;;;1.27;1.17;;;24.50;40.20;;;;;;5010545;28;20444;-71
2022/09/02 01:14:22;;;;;;;2.40;1.60;;;24.50;40.30;;;;;;5020069;28;20515;-71
2022/09/02 01:16:59;;;;;;;1.60;1.50;;;24.50;40.10;;;;;;5037480;28;20472;-71
2022/09/02 01:19:35;;;;;;;1.30;1.20;;;24.50;40.20;;;;;;5029082;28;20475;-71
2022/09/02 01:22:14;;;;;;;1.57;1.47;;;24.50;40.40;;;;;;5026841;28;20513;-71
2022/09/02 01:24:43;;;;;;;2.07;1.60;;;24.50;40.40;;;;;;5022590;28;20530;-71
2022/09/02 01:27:15;;;;;;;1.60;1.50;;;24.50;40.50;;;;;;5028013;28;20486;-71
2022/09/02 01:29:44;;;;;;;1.90;1.80;;;24.50;40.60;;;;;;5043764;28;21114;-71
2022/09/02 01:32:13;;;;;;;1.80;1.70;;;24.50;40.50;;;;;;5045218;28;20443;-72
2022/09/02 01:34:42;;;;;;;1.37;1.27;;;24.50;40.50;;;;;;5044048;28;20456;-71
2022/09/02 01:37:12;;;;;;;1.57;1.40;;;24.50;40.60;;;;;;5024956;28;20444;-71
2022/09/02 01:39:41;;;;;;;1.80;1.40;;;24.50;41.70;;;;;;5029923;28;20887;-71
2022/09/02 01:42:09;;;;;;;1.60;1.50;;;24.50;40.50;;;;;;5045215;28;20491;-71
2022/09/02 01:44:42;;;;;;;1.60;1.30;;;24.50;40.50;;;;;;5024979;28;20467;-71
2022/09/02 01:47:11;;;;;;;1.47;1.37;;;24.50;40.60;;;;;;5028325;28;20530;-71
2022/09/02 01:49:40;;;;;;;1.47;1.37;;;24.50;40.60;;;;;;5044043;28;20429;-72
2022/09/02 01:52:35;;;;;;;1.67;1.30;;;24.50;40.50;;;;;;5023776;28;20440;-71
2022/09/02 01:55:29;;;;;;;1.73;1.63;;;24.50;40.60;;;;;;5027292;23;21125;-71
2022/09/02 01:57:57;;;;;;;2.30;1.43;;;24.40;40.60;;;;;;5018509;28;20432;-71
2022/09/02 02:00:27;;;;;;;1.97;1.60;;;24.50;40.60;;;;;;5005340;28;20472;-71
2022/09/02 02:02:56;;;;;;;1.63;1.53;;;24.40;40.50;;;;;;5009902;28;20803;-71
2022/09/02 02:05:25;;;;;;;1.30;1.20;;;24.50;40.70;;;;;;5003366;28;20834;-71
2022/09/02 02:07:56;;;;;;;1.60;1.50;;;24.50;40.40;;;;;;5003897;28;20436;-71
2022/09/02 02:10:25;;;;;;;2.00;1.47;;;24.50;40.50;;;;;;5030419;28;20472;-71
2022/09/02 02:12:53;;;;;;;1.70;1.60;;;24.50;40.40;;;;;;5012102;28;20493;-71
2022/09/02 02:15:24;;;;;;;1.37;1.27;;;24.50;40.30;;;;;;4997077;28;20543;-71
2022/09/02 02:17:51;;;;;;;1.43;1.20;;;24.40;40.30;;;;;;4999377;28;20851;-71
2022/09/02 02:20:21;;;;;;;1.30;1.20;;;24.40;40.30;;;;;;5006097;28;20468;-71
2022/09/02 02:22:50;;;;;;;2.80;1.23;;;24.40;40.40;;;;;;5019829;28;20424;-71
2022/09/02 02:25:21;;;;;;;1.30;1.03;;;24.40;40.10;;;;;;4997237;28;20562;-71
2022/09/02 02:27:52;;;;;;;1.47;1.20;;;24.40;40.40;;;;;;5007802;28;20539;-71
2022/09/02 02:30:22;;;;;;;1.50;1.40;;;24.40;39.90;;;;;;4998544;28;20551;-71
2022/09/02 02:32:51;;;;;;;1.80;1.33;;;24.40;40.00;;;;;;5007883;28;20432;-71
2022/09/02 02:35:21;;;;;;;1.33;1.23;;;24.40;39.90;;;;;;5008806;28;20838;-71
2022/09/02 02:37:51;;;;;;;1.50;1.40;;;24.40;40.20;;;;;;4994077;28;20460;-71
2022/09/02 02:40:23;;;;;;;1.53;1.33;;;24.40;40.00;;;;;;5008691;28;20486;-71
2022/09/02 02:42:53;;;;;;;1.80;1.30;;;24.40;40.20;;;;;;4997335;28;20508;-71
2022/09/02 02:45:25;;;;;;;1.53;1.43;;;24.40;40.20;;;;;;5009999;28;20475;-71
2022/09/02 02:47:54;;;;;;;1.37;1.27;;;24.40;40.20;;;;;;5003389;28;20946;-71
2022/09/02 02:50:26;;;;;;;1.40;1.30;;;24.40;40.10;;;;;;5004894;28;20655;-71
2022/09/02 02:52:55;;;;;;;1.37;1.10;;;24.40;40.20;;;;;;5005774;28;20757;-71
2022/09/02 02:55:27;;;;;;;1.53;1.43;;;24.40;40.20;;;;;;5003431;28;20469;-71
2022/09/02 02:57:56;;;;;;;1.87;1.63;;;24.30;40.20;;;;;;5004756;28;20448;-71
2022/09/02 03:00:27;;;;;;;1.10;1.00;;;24.40;39.90;;;;;;5008858;28;21069;-71
2022/09/02 03:02:57;;;;;;;1.57;1.30;;;24.30;40.00;;;;;;5000413;28;20512;-71
2022/09/02 03:05:26;;;;;;;2.03;1.50;;;24.40;41.50;;;;;;5001365;28;21024;-71
2022/09/02 03:07:56;;;;;;;1.23;1.13;;;24.30;39.90;;;;;;5007033;28;20441;-71
2022/09/02 03:10:26;;;;;;;1.20;1.10;;;24.30;40.00;;;;;;5003720;28;20813;-71
2022/09/02 03:12:55;;;;;;;1.20;1.10;;;24.30;40.00;;;;;;5002906;28;20432;-71
2022/09/02 03:15:23;;;;;;;1.30;1.20;;;24.30;40.00;;;;;;4994483;28;20468;-71
2022/09/02 03:17:54;;;;;;;1.90;1.40;;;24.30;40.10;;;;;;4993641;28;20428;-71
2022/09/02 03:20:24;;;;;;;2.53;1.50;;;24.30;40.00;;;;;;5002359;28;20467;-71
2022/09/02 03:22:58;;;;;;;1.07;0.97;;;24.30;40.20;;;;;;5009424;28;20439;-71
2022/09/02 03:25:31;;;;;;;1.33;1.23;;;24.30;40.00;;;;;;5001734;28;20629;-71
2022/09/02 03:28:10;;;;;;;1.40;1.30;;;24.30;40.10;;;;;;4994220;28;20679;-71
2022/09/02 03:30:42;;;;;;;1.33;1.23;;;24.30;40.00;;;;;;4999972;28;20672;-71
2022/09/02 03:33:10;;;;;;;1.33;1.23;;;24.30;40.00;;;;;;5002067;28;20474;-71
2022/09/02 03:35:40;;;;;;;1.60;1.50;;;24.30;40.00;;;;;;4992827;28;20829;-73
2022/09/02 03:38:11;;;;;;;1.70;1.60;;;24.30;40.00;;;;;;5009447;28;20429;-72
2022/09/02 03:40:41;;;;;;;1.53;1.40;;;24.30;40.10;;;;;;5006911;28;20477;-73
2022/09/02 03:43:09;;;;;;;1.30;1.20;;;24.30;40.00;;;;;;4993570;28;20987;-72
2022/09/02 03:45:40;;;;;;;1.73;1.40;;;24.30;40.50;;;;;;5009346;28;20468;-73
2022/09/02 03:48:12;;;;;;;1.60;1.33;;;24.30;40.10;;;;;;5003828;28;20448;-72
2022/09/02 03:50:45;;;;;;;1.20;1.10;;;24.30;40.20;;;;;;5004636;28;20472;-72
2022/09/02 03:53:18;;;;;;;1.40;1.00;;;24.30;40.20;;;;;;4998786;28;20464;-72
2022/09/02 03:55:53;;;;;;;1.40;1.30;;;24.30;40.00;;;;;;4990390;28;20491;-72
2022/09/02 03:58:25;;;;;;;2.83;1.43;;;24.20;40.00;;;;;;5008129;28;20538;-72
2022/09/02 04:00:55;;;;;;;3.10;1.43;;;24.30;40.00;;;;;;4999922;28;20490;-72
2022/09/02 04:03:25;;;;;;;3.30;1.60;;;24.30;40.20;;;;;;5001446;28;20535;-72
2022/09/02 04:05:54;;;;;;;2.17;1.27;;;24.20;40.20;;;;;;5001845;28;20484;-72
2022/09/02 04:08:25;;;;;;;1.70;1.33;;;24.30;40.20;;;;;;5004208;28;20424;-72
2022/09/02 04:10:57;;;;;;;1.40;1.30;;;24.20;40.20;;;;;;5003691;28;20521;-72
2022/09/02 04:13:26;;;;;;;3.73;1.47;;;24.20;40.20;;;;;;5001468;28;20448;-72
2022/09/02 04:15:55;;;;;;;1.57;1.27;;;24.20;40.20;;;;;;5007199;28;20475;-72
2022/09/02 04:18:30;;;;;;;1.87;1.73;;;24.20;40.10;;;;;;5003816;28;20563;-72
2022/09/02 04:20:59;;;;;;;1.63;1.23;;;24.20;40.00;;;;;;5004728;28;20480;-72
2022/09/02 04:23:28;;;;;;;3.77;1.30;;;24.20;40.10;;;;;;5002837;28;20495;-72
2022/09/02 04:25:58;;;;;;;1.80;1.27;;;24.20;40.10;;;;;;5005704;28;20471;-72
2022/09/02 04:28:27;;;;;;;0.93;0.90;;;24.20;40.00;;;;;;4999044;28;20444;-72
2022/09/02 04:30:55;;;;;;;1.53;1.30;;;24.20;40.00;;;;;;4995416;28;20472;-72
2022/09/02 04:33:25;;;;;;;1.67;1.30;;;24.20;40.20;;;;;;5000227;28;20509;-72
2022/09/02 04:35:53;;;;;;;1.63;1.50;;;24.20;40.10;;;;;;4998895;28;20539;-72
2022/09/02 04:38:23;;;;;;;2.20;1.67;;;24.20;40.20;;;;;;5001918;28;20822;-72
2022/09/02 04:40:52;;;;;;;2.27;1.33;;;24.20;40.00;;;;;;5001419;28;20958;-72
2022/09/02 04:43:21;;;;;;;1.27;1.17;;;24.20;40.20;;;;;;4998558;28;20480;-72
2022/09/02 04:45:51;;;;;;;1.57;1.40;;;24.20;39.90;;;;;;5001668;28;20518;-72
2022/09/02 04:48:20;;;;;;;1.60;1.50;;;24.10;39.90;;;;;;4999276;28;20966;-72
2022/09/02 04:50:49;;;;;;;1.50;1.20;;;24.20;40.00;;;;;;4998595;28;20504;-72
2022/09/02 04:53:20;;;;;;;1.57;1.20;;;24.20;40.00;;;;;;4995673;28;20460;-72
2022/09/02 04:55:48;;;;;;;1.40;1.23;;;24.20;40.10;;;;;;4993992;28;20530;-72
2022/09/02 04:58:17;;;;;;;1.20;1.10;;;24.10;40.00;;;;;;5003462;28;20429;-72
2022/09/02 05:00:49;;;;;;;2.37;1.60;;;24.10;39.80;;;;;;4993856;28;20531;-72
2022/09/02 05:03:19;;;;;;;2.17;1.33;;;24.10;39.90;;;;;;5001627;28;20444;-72
2022/09/02 05:05:57;;;;;;;2.50;1.27;;;24.10;39.90;;;;;;4986793;28;20487;-72
2022/09/02 05:08:25;;;;;;;1.60;1.50;;;24.10;39.90;;;;;;5005379;28;20855;-72
2022/09/02 05:10:55;;;;;;;2.00;1.07;;;24.10;39.80;;;;;;5000581;28;20978;-72
2022/09/02 05:13:27;;;;;;;1.30;1.20;;;24.10;39.90;;;;;;4999744;28;20566;-72
2022/09/02 05:15:58;;;;;;;1.40;1.30;;;24.10;39.70;;;;;;4991777;28;20476;-73
2022/09/02 05:18:28;;;;;;;1.30;1.20;;;24.10;39.70;;;;;;5000365;28;20850;-72
2022/09/02 05:20:56;;;;;;;3.30;1.27;;;24.10;39.80;;;;;;5001545;28;20504;-72
2022/09/02 05:23:25;;;;;;;1.57;1.47;;;24.10;39.70;;;;;;4999060;28;20470;-71
2022/09/02 05:25:53;;;;;;;2.63;1.50;;;24.10;39.60;;;;;;4998160;28;20480;-72
2022/09/02 05:28:22;;;;;;;1.27;1.17;;;24.10;39.70;;;;;;5001149;28;20866;-72
2022/09/02 05:30:51;;;;;;;2.03;1.70;;;24.10;39.60;;;;;;5004819;28;20563;-72
2022/09/02 05:33:22;;;;;;;1.60;1.50;;;24.10;39.70;;;;;;5001077;28;20915;-73
2022/09/02 05:35:52;;;;;;;1.60;1.33;;;24.10;39.60;;;;;;5004209;28;20496;-72
2022/09/02 05:38:21;;;;;;;2.03;1.50;;;24.10;39.60;;;;;;4986749;28;20468;-73
2022/09/02 05:40:50;;;;;;;1.60;1.50;;;24.10;39.50;;;;;;5007571;28;20986;-73
2022/09/02 05:43:19;;;;;;;1.43;1.33;;;24.10;39.50;;;;;;5004304;28;20456;-73
2022/09/02 05:45:48;;;;;;;2.00;1.27;;;24.10;39.40;;;;;;5007928;28;20550;-73
2022/09/02 05:51:06;;;;;;;1.60;1.50;;;24.00;39.30;;;;;;4982118;28;20551;-73
2022/09/02 05:53:35;;;;;;;4.97;1.63;;;24.10;39.30;;;;;;5002281;28;20543;-72
2022/09/02 05:56:05;;;;;;;1.80;1.40;;;24.00;39.10;;;;;;5000724;28;20555;-73
2022/09/02 05:58:34;;;;;;;1.93;1.37;;;24.00;39.20;;;;;;4985599;28;20433;-73
2022/09/02 06:01:08;;;;;;;3.33;1.23;;;24.00;39.10;;;;;;5018963;28;20567;-73
2022/09/02 06:03:38;;;;;;;1.57;1.47;;;24.00;38.90;;;;;;4997437;28;20460;-73
2022/09/02 06:06:09;;;;;;;1.73;1.60;;;24.00;40.00;;;;;;4995805;28;20468;-71
2022/09/02 06:08:41;;;;;;;1.70;1.60;;;24.00;38.60;;;;;;5004116;28;20453;-71
2022/09/02 06:11:12;;;;;;;1.57;1.33;;;24.00;38.90;;;;;;5008155;28;20531;-71
2022/09/02 06:13:42;;;;;;;2.13;1.40;;;24.00;38.90;;;;;;4991557;28;20472;-71
2022/09/02 06:16:14;;;;;;;1.10;1.00;;;24.00;38.90;;;;;;5007613;28;20480;-71
2022/09/02 06:18:44;;;;;;;1.20;1.10;;;24.00;38.80;;;;;;5007940;28;20502;-71
2022/09/02 06:21:15;;;;;;;2.43;1.70;;;24.00;39.10;;;;;;5020324;28;20558;-72
2022/09/02 06:23:47;;;;;;;1.90;1.50;;;24.00;38.90;;;;;;5010983;28;20461;-71
2022/09/02 06:26:17;;;;;;;1.43;1.33;;;24.00;39.10;;;;;;4994147;28;21102;-71
2022/09/02 06:28:46;;;;;;;2.93;1.77;;;24.00;38.90;;;;;;4993805;28;20968;-72
2022/09/02 06:31:19;;;;;;;2.10;1.43;;;24.00;38.90;;;;;;5004676;28;20452;-72
2022/09/02 06:33:52;;;;;;;2.07;1.43;;;24.00;38.90;;;;;;4996729;28;20452;-72
2022/09/02 06:36:26;;;;;;;1.50;1.40;;;23.90;38.90;;;;;;4979850;28;20455;-73
2022/09/02 06:38:59;;;;;;;1.57;1.23;;;23.90;38.70;;;;;;5021831;28;20440;-72
2022/09/02 06:41:33;;;;;;;2.13;1.20;;;23.90;38.70;;;;;;5006461;28;20510;-71
2022/09/02 06:44:08;;;;;;;3.13;1.33;;;23.90;39.10;;;;;;5000847;28;20464;-71
2022/09/02 06:46:42;;;;;;;2.60;1.57;;;23.90;38.90;;;;;;5006782;28;20498;-65
2022/09/02 06:49:15;;;;;;;1.17;1.07;;;23.90;38.60;;;;;;5003447;28;20436;-62
2022/09/02 06:51:49;;;;;;;1.70;1.43;;;23.90;39.00;;;;;;4997627;28;20532;-63
2022/09/02 06:54:20;;;;;;;1.60;1.30;;;23.90;38.90;;;;;;4993325;28;20480;-64
2022/09/02 06:56:54;;;;;;;2.10;1.43;;;23.90;38.50;;;;;;4999913;28;20429;-64
2022/09/02 06:59:26;;;;;;;1.10;1.00;;;23.90;38.80;;;;;;4998940;28;20524;-64
2022/09/02 07:01:57;;;;;;;1.70;1.50;;;23.90;38.90;;;;;;5010915;28;20991;-64
2022/09/02 07:07:17;;;;;;;4.47;1.40;;;23.90;38.60;;;;;;5001341;28;20805;-64
2022/09/02 07:09:54;;;;;;;2.40;1.67;;;23.90;38.70;;;;;;5005343;28;20943;-64
2022/09/02 07:12:25;;;;;;;1.70;1.60;;;23.90;38.80;;;;;;4987427;28;20490;-64
2022/09/02 07:15:03;;;;;;;2.47;1.43;;;23.90;38.90;;;;;;4987128;28;20488;-64
2022/09/02 07:17:36;;;;;;;1.67;1.50;;;23.90;38.90;;;;;;5002080;28;20429;-64
2022/09/02 07:20:10;;;;;;;1.73;1.60;;;23.90;39.00;;;;;;5000249;28;20527;-64
2022/09/02 07:22:44;;;;;;;1.37;1.27;;;23.90;39.00;;;;;;4999798;28;20472;-65
2022/09/02 07:25:20;;;;;;;3.33;1.50;;;23.90;39.00;;;;;;5000529;28;20467;-64
2022/09/02 07:27:51;;;;;;;2.80;1.43;;;23.90;38.90;;;;;;5009133;28;21313;-65
2022/09/02 07:30:19;;;;;;;2.50;1.63;;;23.90;38.80;;;;;;5001500;28;20506;-65
2022/09/02 07:32:52;;;;;;;2.40;1.57;;;23.90;38.60;;;;;;4999633;28;20515;-65
2022/09/02 07:35:24;;;;;;;1.60;1.50;;;23.90;38.50;;;;;;5018052;28;20479;-63
2022/09/02 07:37:54;;;;;;;1.70;1.60;;;23.90;38.50;;;;;;5003219;28;20447;-65
2022/09/02 07:40:23;;;;;;;2.70;1.80;;;23.90;38.50;;;;;;5001659;28;20518;-64
2022/09/02 07:42:53;;;;;;;2.77;2.23;;;23.90;38.40;;;;;;5001497;28;20456;-65
2022/09/02 07:45:24;;;;;;;1.97;1.30;;;23.90;38.40;;;;;;5002706;28;20476;-65
2022/09/02 07:47:54;;;;;;;5.20;1.57;;;23.90;38.40;;;;;;5001558;28;20479;-64
2022/09/02 07:50:25;;;;;;;7.85;2.40;;;23.90;38.40;;;;;;5006655;28;20893;-65
2022/09/02 07:52:58;;;;;;;3.37;1.90;;;24.10;38.30;;;;;;5006921;28;20272;-64
2022/09/02 07:55:30;;;;;;;2.33;1.80;;;24.10;38.50;;;;;;4997408;23;20480;-71
2022/09/02 07:58:00;;;;;;;2.30;1.67;;;24.10;38.30;;;;;;4975373;28;20774;-72
2022/09/02 08:00:29;;;;;;;3.50;2.23;;;24.00;38.50;;;;;;4984129;28;20462;-71
2022/09/02 08:03:05;;;;;;;2.03;1.80;;;24.00;38.50;;;;;;4984079;28;20492;-71
2022/09/02 08:05:45;;;;;;;2.00;1.80;;;24.00;38.50;;;;;;4985309;28;20473;-72
2022/09/02 08:08:19;;;;;;;2.10;1.30;;;24.00;38.60;;;;;;4987174;28;20442;-71
2022/09/02 08:10:48;;;;;;;1.63;1.53;;;23.90;38.40;;;;;;4985818;28;20474;-71
2022/09/02 08:13:17;;;;;;;2.33;1.50;;;23.90;38.40;;;;;;4979227;28;20666;-71
2022/09/02 08:15:46;;;;;;;4.60;1.73;;;23.90;38.40;;;;;;4974048;28;20479;-71
2022/09/02 08:18:20;;;;;;;1.70;1.50;;;23.90;38.50;;;;;;4972955;28;21067;-71
2022/09/02 08:20:49;;;;;;;2.07;1.60;;;23.90;38.40;;;;;;4981431;28;20841;-71
2022/09/02 08:23:19;;;;;;;2.07;1.83;;;23.90;38.40;;;;;;4984378;28;20540;-72
2022/09/02 08:26:06;;;;;;;1.67;1.50;;;23.90;38.40;;;;;;4984660;28;20462;-71
2022/09/02 08:28:35;;;;;;;1.80;1.30;;;23.90;38.40;;;;;;4981116;28;20516;-71
2022/09/02 08:31:07;;;;;;;4.03;1.97;;;23.90;38.40;;;;;;4980374;28;21047;-71
2022/09/02 08:33:36;;;;;;;4.93;2.60;;;23.90;38.40;;;;;;4979950;28;20549;-71
2022/09/02 08:36:09;;;;;;;3.83;2.37;;;23.90;37.30;;;;;;4964835;28;20494;-71
2022/09/02 08:38:39;;;;;;;2.50;1.40;;;24.10;37.50;;;;;;4983074;28;20438;-65
2022/09/02 08:41:21;;;;;;;4.20;2.63;;;24.10;37.40;;;;;;4962889;28;21001;-67
2022/09/02 08:43:52;;;;;;;3.93;2.37;;;24.00;37.40;;;;;;4981905;28;21187;-67
2022/09/02 08:46:24;;;;;;;4.50;2.57;;;23.90;37.50;;;;;;4983362;28;20442;-67
2022/09/02 08:48:58;;;;;;;3.67;1.90;;;23.90;37.70;;;;;;4979854;28;20952;-66
2022/09/02 08:51:31;;;;;;;3.73;1.90;;;23.90;38.10;;;;;;4975113;28;20454;-66
2022/09/02 08:54:10;;;;;;;3.00;2.13;;;23.90;38.40;;;;;;4981223;28;20548;-67
2022/09/02 08:56:41;;;;;;;4.10;2.10;;;23.90;38.40;;;;;;4978706;28;20424;-67
2022/09/02 08:59:11;;;;;;;2.47;1.90;;;23.90;38.50;;;;;;4988402;28;20465;-67
2022/09/02 09:01:47;;;;;;;2.97;2.07;;;23.90;38.40;;;;;;4979365;28;20443;-67
2022/09/02 09:04:26;;;;;;;5.33;2.20;;;23.80;38.30;;;;;;4990111;28;20863;-67
2022/09/02 09:07:13;;;;;;;4.50;1.93;;;23.90;38.40;;;;;;4984124;28;20437;-67
2022/09/02 09:10:01;;;;;;;2.10;1.77;;;23.80;38.30;;;;;;4973452;28;20592;-67
2022/09/02 09:12:52;;;;;;;1.80;1.40;;;23.90;38.40;;;;;;4984020;28;20434;-67
2022/09/02 09:15:28;;;;;;;2.50;2.30;;;23.90;38.40;;;;;;4978654;28;20569;-67
2022/09/02 09:17:59;;;;;;;4.87;1.77;;;23.90;38.40;;;;;;4990269;28;20437;-67
2022/09/02 09:20:30;;;;;;;2.60;1.83;;;23.90;38.40;;;;;;4987598;28;21296;-67
2022/09/02 09:23:03;;;;;;;1.67;1.57;;;23.90;38.40;;;;;;4989454;28;20508;-67
2022/09/02 09:25:33;;;;;;;1.80;1.70;;;23.90;38.50;;;;;;4973499;28;20818;-66
2022/09/02 09:28:02;;;;;;;1.80;1.70;;;23.90;38.50;;;;;;4971915;28;20422;-67
2022/09/02 09:30:32;;;;;;;1.80;1.70;;;23.90;38.50;;;;;;4982341;28;20473;-72
2022/09/02 09:33:02;;;;;;;4.43;1.60;;;23.90;38.40;;;;;;4989486;28;20446;-71
2022/09/02 09:35:48;;;;;;;1.83;1.73;;;23.90;38.50;;;;;;4985578;28;20492;-71
2022/09/02 09:38:29;;;;;;;3.80;1.80;;;23.90;38.40;;;;;;4982444;28;20426;-72
2022/09/02 09:41:27;;;;;;;1.93;1.80;;;23.90;38.40;;;;;;4988877;28;20473;-71
2022/09/02 09:43:56;;;;;;;2.53;1.43;;;23.90;38.40;;;;;;4936937;28;20533;-71
2022/09/02 09:46:28;;;;;;;1.63;1.53;;;23.90;38.40;;;;;;4986783;28;20427;-71
2022/09/02 09:48:56;;;;;;;2.53;1.23;;;23.90;38.40;;;;;;4987239;28;20449;-71
2022/09/02 09:51:25;;;;;;;2.00;1.70;;;23.90;38.50;;;;;;4989609;28;20984;-71
2022/09/02 09:54:14;;;;;;;1.60;1.50;;;23.90;38.50;;;;;;4972173;28;20457;-72
2022/09/02 09:56:45;;;;;;;2.00;1.60;;;23.90;38.40;;;;;;4973271;28;20446;-72
2022/09/02 09:59:39;;;;;;;2.30;1.83;;;23.90;38.40;;;;;;4989024;28;20454;-71
2022/09/02 10:02:19;;;;;;;3.10;1.90;;;23.90;38.40;;;;;;4988318;28;20790;-71
2022/09/02 10:04:52;;;;;;;4.10;2.03;;;23.90;38.40;;;;;;4988444;28;20491;-72
2022/09/02 10:07:38;;;;;;;1.70;1.50;;;23.90;38.40;;;;;;4970233;28;20516;-71
2022/09/02 10:10:17;;;;;;;1.50;1.40;;;23.90;38.40;;;;;;4971860;28;20634;-71
2022/09/02 10:12:50;;;;;;;1.70;1.60;;;23.90;38.40;;;;;;4980944;28;21072;-71
2022/09/02 10:15:29;;;;;;;1.70;1.60;;;23.90;38.40;;;;;;4986415;28;20471;-71
2022/09/02 10:18:13;;;;;;;2.40;2.00;;;23.90;38.40;;;;;;4988859;28;20457;-71
2022/09/02 10:20:50;;;;;;;4.27;2.03;;;23.90;38.40;;;;;;4982849;28;20470;-71
2022/09/02 10:23:51;;;;;;;3.37;1.50;;;23.90;38.40;;;;;;4972141;28;20462;-71
2022/09/02 10:26:29;;;;;;;1.50;1.40;;;23.90;38.40;;;;;;4988312;28;21015;-71
2022/09/02 10:29:33;;;;;;;2.47;1.40;;;23.90;38.40;;;;;;4982402;28;20527;-71
2022/09/02 10:32:19;;;;;;;3.20;1.70;;;23.90;38.40;;;;;;4988940;28;20448;-71
2022/09/02 10:35:00;;;;;;;1.63;1.43;;;23.90;38.40;;;;;;4971424;28;20480;-71
2022/09/02 10:37:36;;;;;;;1.73;1.50;;;23.90;38.40;;;;;;4981720;28;20500;-71
2022/09/02 10:40:09;;;;;;;1.60;1.50;;;23.90;38.40;;;;;;4988432;28;20437;-71
2022/09/02 10:43:00;;;;;;;2.90;2.17;;;23.90;38.40;;;;;;4972219;28;20484;-71
2022/09/02 10:45:36;;;;;;;2.10;1.30;;;23.90;38.40;;;;;;4980580;28;20904;-71
2022/09/02 10:48:16;;;;;;;1.87;1.67;;;23.90;38.40;;;;;;4988445;28;20461;-71
2022/09/02 10:50:52;;;;;;;2.37;2.10;;;23.90;38.50;;;;;;4981676;28;20486;-72
2022/09/02 10:53:43;;;;;;;1.40;1.30;;;23.90;38.40;;;;;;4980272;28;20464;-71
2022/09/02 10:56:20;;;;;;;2.50;1.60;;;23.90;38.50;;;;;;4970927;28;21096;-71
2022/09/02 10:58:55;;;;;;;2.30;1.83;;;23.90;38.40;;;;;;4988312;28;20454;-71
2022/09/02 11:01:28;;;;;;;1.87;1.50;;;23.90;38.40;;;;;;4982554;28;20496;-72
2022/09/02 11:04:08;;;;;;;1.60;1.40;;;23.90;38.40;;;;;;4986458;28;20462;-71
2022/09/02 11:06:40;;;;;;;1.50;1.40;;;23.90;38.40;;;;;;4981749;28;20452;-71
2022/09/02 11:09:35;;;;;;;2.67;1.70;;;23.90;38.40;;;;;;4987408;28;20470;-71
2022/09/02 11:12:09;;;;;;;2.70;1.53;;;23.90;38.40;;;;;;4986206;28;20752;-72
2022/09/02 11:14:51;;;;;;;1.80;1.70;;;23.90;38.40;;;;;;4973751;28;20449;-70
2022/09/02 11:17:27;;;;;;;1.43;1.33;;;23.90;38.40;;;;;;4980570;28;20441;-72
2022/09/02 11:20:01;;;;;;;1.50;1.40;;;23.90;38.40;;;;;;4955247;28;20470;-71
2022/09/02 11:22:39;;;;;;;1.60;1.50;;;23.90;38.10;;;;;;4973118;28;21025;-71
2022/09/02 11:25:12;;;;;;;4.30;1.53;;;23.90;37.80;;;;;;4976992;28;20481;-71
2022/09/02 11:27:47;;;;;;;3.60;1.20;;;23.90;37.90;;;;;;4980910;28;20460;-71
2022/09/02 11:30:19;;;;;;;3.57;1.50;;;23.90;37.80;;;;;;4975050;28;20468;-71
2022/09/02 11:32:56;;;;;;;1.57;1.47;;;23.90;37.90;;;;;;4968288;28;20439;-71
2022/09/02 11:35:27;;;;;;;1.40;1.23;;;23.90;37.70;;;;;;4974226;28;20470;-71
2022/09/02 11:38:01;;;;;;;1.90;1.80;;;23.90;37.80;;;;;;4976887;28;20435;-72
2022/09/02 11:40:33;;;;;;;2.07;1.50;;;23.90;37.80;;;;;;4982098;28;20466;-71
2022/09/02 11:43:18;;;;;;;1.80;1.20;;;23.90;37.70;;;;;;4967613;28;20965;-71
2022/09/02 11:46:17;;;;;;;1.70;1.60;;;23.90;37.60;;;;;;4975007;28;20497;-71
2022/09/02 11:49:14;;;;;;;1.13;1.03;;;23.90;37.50;;;;;;4968948;28;20445;-71
2022/09/02 11:51:58;;;;;;;1.30;1.20;;;23.90;37.50;;;;;;4961144;28;20622;-71
2022/09/02 11:54:35;;;;;;;3.20;1.80;;;23.90;37.40;;;;;;4987185;28;20457;-72
2022/09/02 11:57:06;;;;;;;1.50;1.27;;;24.00;37.50;;;;;;4963490;28;20425;-71
2022/09/02 12:00:07;;;;;;;1.37;1.27;;;23.90;37.40;;;;;;4981593;28;20521;-72
2022/09/02 12:02:46;;;;;;;3.43;1.70;;;24.00;37.50;;;;;;4975882;28;20445;-71
2022/09/02 12:05:51;;;;;;;1.80;1.43;;;24.00;37.20;;;;;;4984669;28;20469;-71
2022/09/02 12:09:09;;;;;;;3.67;1.40;;;24.00;37.20;;;;;;4909484;29;20433;-72
2022/09/02 12:11:55;;;;;;;1.23;1.13;;;24.00;37.10;;;;;;4916820;29;20486;-71
2022/09/02 12:15:06;;;;;;;1.87;1.43;;;24.00;37.10;;;;;;4973229;28;20590;-71
2022/09/02 12:17:45;;;;;;;1.60;1.17;;;24.00;37.00;;;;;;4983417;28;20461;-71
2022/09/02 12:20:46;;;;;;;2.10;1.30;;;24.00;37.10;;;;;;4985250;28;20453;-72
2022/09/02 12:23:52;;;;;;;1.63;1.40;;;24.00;37.00;;;;;;4979007;28;20446;-70
2022/09/02 12:26:24;;;;;;;4.00;2.10;;;24.00;37.00;;;;;;4956260;28;20535;-71
2022/09/02 12:29:09;;;;;;;1.47;1.30;;;24.00;37.00;;;;;;4971024;28;20434;-71
2022/09/02 12:31:41;;;;;;;1.50;1.40;;;24.00;37.00;;;;;;4970211;28;20525;-71
2022/09/02 12:34:47;;;;;;;1.60;1.50;;;24.00;36.80;;;;;;4986241;28;20465;-71
2022/09/02 12:37:52;;;;;;;1.47;1.40;;;24.00;37.10;;;;;;4984896;28;20528;-71
2022/09/02 12:40:30;;;;;;;1.83;1.63;;;24.00;36.90;;;;;;4975470;28;20457;-71
2022/09/02 12:43:06;;;;;;;1.47;1.37;;;24.00;36.80;;;;;;4982658;28;20497;-71
2022/09/02 12:45:42;;;;;;;1.70;1.60;;;24.00;36.80;;;;;;4976668;28;20523;-72
2022/09/02 12:48:15;;;;;;;1.80;1.27;;;24.00;36.80;;;;;;4990813;28;21101;-71
2022/09/02 12:50:54;;;;;;;2.10;1.50;;;24.00;36.80;;;;;;4988468;28;20485;-71
2022/09/02 12:53:35;;;;;;;1.70;1.60;;;24.00;36.90;;;;;;4982846;28;20471;-71
2022/09/02 12:56:08;;;;;;;2.70;1.40;;;24.00;36.80;;;;;;4957814;28;20466;-71
2022/09/02 12:58:47;;;;;;;2.10;1.57;;;24.00;36.70;;;;;;4976112;28;20446;-73
2022/09/02 13:01:23;;;;;;;1.93;1.07;;;24.00;36.70;;;;;;4990079;28;20507;-71
2022/09/02 13:04:20;;;;;;;1.47;1.37;;;24.10;36.80;;;;;;4983057;28;20513;-72
2022/09/02 13:07:29;;;;;;;2.53;1.37;;;24.10;36.90;;;;;;4980525;28;20561;-71
2022/09/02 13:10:36;;;;;;;2.23;1.80;;;24.10;37.00;;;;;;4990739;28;20446;-71
2022/09/02 13:13:27;;;;;;;2.03;1.10;;;24.10;36.70;;;;;;4886012;28;20509;-71
2022/09/02 13:16:28;;;;;;;1.60;1.50;;;24.10;36.70;;;;;;4977700;28;20462;-71
2022/09/02 13:19:34;;;;;;;1.90;1.20;;;24.10;36.80;;;;;;4948860;28;20788;-72
2022/09/02 13:22:31;;;;;;;1.33;1.23;;;24.10;36.60;;;;;;4984359;28;20477;-71
2022/09/02 13:25:23;;;;;;;1.80;1.60;;;24.10;36.50;;;;;;4989735;28;20476;-71
2022/09/02 13:28:27;;;;;;;1.43;1.27;;;24.10;36.70;;;;;;4958272;28;20444;-72
2022/09/02 13:31:19;;;;;;;1.63;1.23;;;24.10;36.90;;;;;;4975143;28;20881;-71
2022/09/02 13:33:58;;;;;;;1.40;1.27;;;24.10;36.70;;;;;;4977557;28;20523;-71